Constr.zhivotovsky — UDTG — position and weather

sailwx.info

Track history (hours):
 
Tides and Currents Weather Stations Pressure Air Temp Water Temp Dewpoint Dewpoint Depression Visibility Wind Speed Wind Dir Waves Ship Positions

Constr.zhivotovsky

Last reported at 2018-Feb-23 14:38 UTC. Time now 2018-Feb-25 16:07 UTC.
Position N 45°05' E 036°30'.

Length 141 m; draft 3.8 m.

Type: Ship (hazmat cat B). MMSI: 273351180.

Date/timePositionNaut miles runAvg speedWind from/ knotsBaromVisibWave heightAir tempDewpointWater temp
2018-Feb-23 14:38N 45°05' E 036°30'4 9.0
2018-Feb-23 14:12N 45°08' E 036°28'2 8.1
2018-Feb-23 14:00N 45°10' E 036°28'4 8.4
2018-Feb-23 13:31N 45°14' E 036°28'3 6.7
2018-Feb-23 13:00N 45°17' E 036°29'5 9.6
2018-Feb-23 12:30N 45°20' E 036°35'4 8.9
2018-Feb-23 12:00N 45°23' E 036°40'3 6.6
2018-Feb-23 11:31N 45°26' E 036°40'2 4.8
2018-Feb-23 11:01N 45°28' E 036°38'0 0.8
2018-Feb-23 10:30N 45°28' E 036°38'0 0.0
2018-Feb-23 10:00N 45°28' E 036°38'0 0.0
2018-Feb-23 09:28N 45°28' E 036°38'0 0.0
2018-Feb-23 08:58N 45°28' E 036°38'0 0.0
2018-Feb-23 08:30N 45°28' E 036°38'0 0.0
2018-Feb-23 07:55N 45°28' E 036°38'0 0.0
2018-Feb-23 07:30N 45°28' E 036°38'0 0.0
2018-Feb-23 06:58N 45°28' E 036°38'0 0.0
2018-Feb-23 06:28N 45°28' E 036°38'0 0.0
2018-Feb-23 05:58N 45°28' E 036°38'0 0.0
2018-Feb-23 05:30N 45°28' E 036°38'0 0.0
2018-Feb-23 05:00N 45°28' E 036°38'0 0.0
2018-Feb-23 04:30N 45°28' E 036°38'0 0.0
2018-Feb-23 02:58N 45°28' E 036°38'0 0.0
2018-Feb-23 00:44N 45°28' E 036°38'0 0.0
2018-Feb-22 23:19N 45°28' E 036°38'0 0.0
2018-Feb-22 22:57N 45°28' E 036°38'0 0.0
2018-Feb-22 22:28N 45°28' E 036°38'0 0.0
2018-Feb-22 21:12N 45°28' E 036°38'0 0.0
2018-Feb-22 20:55N 45°28' E 036°38'0 0.0
2018-Feb-22 19:20N 45°28' E 036°38'0 0.0
2018-Feb-22 18:59N 45°28' E 036°38'0 0.0
2018-Feb-22 18:14N 45°28' E 036°38'0 0.0
2018-Feb-22 17:56N 45°28' E 036°38'0 0.0
2018-Feb-22 17:29N 45°28' E 036°38'0 0.0
2018-Feb-22 16:53N 45°28' E 036°38'0 0.0
2018-Feb-22 16:23N 45°28' E 036°38'0 0.0
2018-Feb-22 15:56N 45°28' E 036°38'0 0.0
2018-Feb-22 15:27N 45°28' E 036°38'0 0.0
2018-Feb-22 15:00N 45°28' E 036°38'0 0.0
2018-Feb-22 14:31N 45°28' E 036°38'2 3.4
2018-Feb-22 14:00N 45°29' E 036°40'4 8.6
2018-Feb-22 13:30N 45°30' E 036°45'  
2018-Feb-16 13:15N 45°33' E 036°46'2 8.8
2018-Feb-16 13:00N 45°31' E 036°45'4 8.7
2018-Feb-16 12:30N 45°28' E 036°42'4 8.8
2018-Feb-16 12:00N 45°23' E 036°40'4 7.2
2018-Feb-16 11:31N 45°21' E 036°37'5 8.8
2018-Feb-16 10:58N 45°19' E 036°31'3 7.6
2018-Feb-16 10:31N 45°16' E 036°28'3 5.9
2018-Feb-16 10:01N 45°13' E 036°29'2 4.3
2018-Feb-16 09:30N 45°11' E 036°30'0 0.0
2018-Feb-16 09:00N 45°11' E 036°30'0 0.0
2018-Feb-16 08:27N 45°11' E 036°30'0 0.0
2018-Feb-16 08:00N 45°11' E 036°30'0 0.0
2018-Feb-16 07:30N 45°11' E 036°30'0 0.0
2018-Feb-16 07:00N 45°11' E 036°30'0 0.0
2018-Feb-16 06:27N 45°11' E 036°30'0 0.0
2018-Feb-16 05:39N 45°11' E 036°30'0 0.0
2018-Feb-16 05:27N 45°11' E 036°30'0 0.1
2018-Feb-16 05:01N 45°11' E 036°30'5 7.1
2018-Feb-16 04:21N 45°06' E 036°30'3 8.3
2018-Feb-16 03:59N 45°03' E 036°30'8 0.2
2018-Feb-14 17:20N 45°11' E 036°28'3 8.7
2018-Feb-14 17:01N 45°14' E 036°28'4 7.7
2018-Feb-14 16:28N 45°18' E 036°29'4 8.3
2018-Feb-14 16:00N 45°19' E 036°34'4 7.4
2018-Feb-14 15:30N 45°21' E 036°39'2 4.5
2018-Feb-14 15:01N 45°22' E 036°41'1 2.5
2018-Feb-14 14:28N 45°23' E 036°42'0 0.0
2018-Feb-14 13:58N 45°23' E 036°42'0 0.0
2018-Feb-14 13:28N 45°23' E 036°42'0 0.0
2018-Feb-14 12:58N 45°23' E 036°42'0 0.0
2018-Feb-14 12:28N 45°23' E 036°42'0 0.0
2018-Feb-14 11:58N 45°23' E 036°42'0 0.0
2018-Feb-14 11:28N 45°23' E 036°42'0 0.4
2018-Feb-14 11:01N 45°24' E 036°42'4 8.7
2018-Feb-14 10:31N 45°28' E 036°43'4 8.9
2018-Feb-14 10:01N 45°32' E 036°46'  
Track history (hours):
 
Tides and Currents Weather Stations Pressure Air Temp Water Temp Dewpoint Dewpoint Depression Visibility Wind Speed Wind Dir Waves Ship Positions

Constr.zhivotovsky

Last reported at 2018-Feb-23 14:38 UTC. Time now 2018-Feb-25 16:07 UTC.
Position N 45°05' E 036°30'.

Length 141 m; draft 3.8 m.

Type: Ship (hazmat cat B). MMSI: 273351180.

Date/timePositionNaut miles runAvg speedWind from/ knotsBaromVisibWave heightAir tempDewpointWater temp
2018-Feb-23 14:38N 45°05' E 036°30'4 9.0
2018-Feb-23 14:12N 45°08' E 036°28'2 8.1
2018-Feb-23 14:00N 45°10' E 036°28'4 8.4
2018-Feb-23 13:31N 45°14' E 036°28'3 6.7
2018-Feb-23 13:00N 45°17' E 036°29'5 9.6
2018-Feb-23 12:30N 45°20' E 036°35'4 8.9
2018-Feb-23 12:00N 45°23' E 036°40'3 6.6
2018-Feb-23 11:31N 45°26' E 036°40'2 4.8
2018-Feb-23 11:01N 45°28' E 036°38'0 0.8
2018-Feb-23 10:30N 45°28' E 036°38'0 0.0
2018-Feb-23 10:00N 45°28' E 036°38'0 0.0
2018-Feb-23 09:28N 45°28' E 036°38'0 0.0
2018-Feb-23 08:58N 45°28' E 036°38'0 0.0
2018-Feb-23 08:30N 45°28' E 036°38'0 0.0
2018-Feb-23 07:55N 45°28' E 036°38'0 0.0
2018-Feb-23 07:30N 45°28' E 036°38'0 0.0
2018-Feb-23 06:58N 45°28' E 036°38'0 0.0
2018-Feb-23 06:28N 45°28' E 036°38'0 0.0
2018-Feb-23 05:58N 45°28' E 036°38'0 0.0
2018-Feb-23 05:30N 45°28' E 036°38'0 0.0
2018-Feb-23 05:00N 45°28' E 036°38'0 0.0
2018-Feb-23 04:30N 45°28' E 036°38'0 0.0
2018-Feb-23 02:58N 45°28' E 036°38'0 0.0
2018-Feb-23 00:44N 45°28' E 036°38'0 0.0
2018-Feb-22 23:19N 45°28' E 036°38'0 0.0
2018-Feb-22 22:57N 45°28' E 036°38'0 0.0
2018-Feb-22 22:28N 45°28' E 036°38'0 0.0
2018-Feb-22 21:12N 45°28' E 036°38'0 0.0
2018-Feb-22 20:55N 45°28' E 036°38'0 0.0
2018-Feb-22 19:20N 45°28' E 036°38'0 0.0
2018-Feb-22 18:59N 45°28' E 036°38'0 0.0
2018-Feb-22 18:14N 45°28' E 036°38'0 0.0
2018-Feb-22 17:56N 45°28' E 036°38'0 0.0
2018-Feb-22 17:29N 45°28' E 036°38'0 0.0
2018-Feb-22 16:53N 45°28' E 036°38'0 0.0
2018-Feb-22 16:23N 45°28' E 036°38'0 0.0
2018-Feb-22 15:56N 45°28' E 036°38'0 0.0
2018-Feb-22 15:27N 45°28' E 036°38'0 0.0
2018-Feb-22 15:00N 45°28' E 036°38'0 0.0
2018-Feb-22 14:31N 45°28' E 036°38'2 3.4
2018-Feb-22 14:00N 45°29' E 036°40'4 8.6
2018-Feb-22 13:30N 45°30' E 036°45'  
2018-Feb-16 13:15N 45°33' E 036°46'2 8.8
2018-Feb-16 13:00N 45°31' E 036°45'4 8.7
2018-Feb-16 12:30N 45°28' E 036°42'4 8.8
2018-Feb-16 12:00N 45°23' E 036°40'4 7.2
2018-Feb-16 11:31N 45°21' E 036°37'5 8.8
2018-Feb-16 10:58N 45°19' E 036°31'3 7.6
2018-Feb-16 10:31N 45°16' E 036°28'3 5.9
2018-Feb-16 10:01N 45°13' E 036°29'2 4.3
2018-Feb-16 09:30N 45°11' E 036°30'0 0.0
2018-Feb-16 09:00N 45°11' E 036°30'0 0.0
2018-Feb-16 08:27N 45°11' E 036°30'0 0.0
2018-Feb-16 08:00N 45°11' E 036°30'0 0.0
2018-Feb-16 07:30N 45°11' E 036°30'0 0.0
2018-Feb-16 07:00N 45°11' E 036°30'0 0.0
2018-Feb-16 06:27N 45°11' E 036°30'0 0.0
2018-Feb-16 05:39N 45°11' E 036°30'0 0.0
2018-Feb-16 05:27N 45°11' E 036°30'0 0.1
2018-Feb-16 05:01N 45°11' E 036°30'5 7.1
2018-Feb-16 04:21N 45°06' E 036°30'3 8.3
2018-Feb-16 03:59N 45°03' E 036°30'8 0.2
2018-Feb-14 17:20N 45°11' E 036°28'3 8.7
2018-Feb-14 17:01N 45°14' E 036°28'4 7.7
2018-Feb-14 16:28N 45°18' E 036°29'4 8.3
2018-Feb-14 16:00N 45°19' E 036°34'4 7.4
2018-Feb-14 15:30N 45°21' E 036°39'2 4.5
2018-Feb-14 15:01N 45°22' E 036°41'1 2.5
2018-Feb-14 14:28N 45°23' E 036°42'0 0.0
2018-Feb-14 13:58N 45°23' E 036°42'0 0.0
2018-Feb-14 13:28N 45°23' E 036°42'0 0.0
2018-Feb-14 12:58N 45°23' E 036°42'0 0.0
2018-Feb-14 12:28N 45°23' E 036°42'0 0.0
2018-Feb-14 11:58N 45°23' E 036°42'0 0.0
2018-Feb-14 11:28N 45°23' E 036°42'0 0.4
2018-Feb-14 11:01N 45°24' E 036°42'4 8.7
2018-Feb-14 10:31N 45°28' E 036°43'4 8.9
2018-Feb-14 10:01N 45°32' E 036°46'  

Dump ship's entire track history